Time;durP1;ratioP1;P1;durP2;ratioP2;P2;SDS_P1;SDS_P2;PMS_P1;PMS_P2;Temp;Humidity;BMP_temperature;BMP_pressure;BME280_temperature;BME280_humidity;BME280_pressure;Samples;Min_cycle;Max_cycle;Signal;HPM_P1;HPM_P2
2022/09/15 00:07:05;;;;;;;0.70;0.70;;;;;;;21.98;67.49;99320.13;18430851;32;20137;-56
2022/09/15 00:17:09;;;;;;;0.20;0.17;;;;;;;22.01;67.39;99284.53;18430701;32;20104;-56
2022/09/15 00:27:14;;;;;;;1.85;0.40;;;;;;;21.94;67.71;99251.34;18430144;32;20198;-56
2022/09/15 00:37:17;;;;;;;4.37;0.73;;;;;;;21.82;68.04;99271.66;18430560;32;20101;-56
2022/09/15 00:47:24;;;;;;;0.30;0.30;;;;;;;21.86;67.98;99310.31;18428708;32;20159;-56
2022/09/15 00:57:31;;;;;;;0.62;0.55;;;;;;;21.89;68.19;99352.59;18428506;32;20457;-56
2022/09/15 01:07:41;;;;;;;0.60;0.60;;;;;;;21.84;68.41;99358.22;18427869;32;20381;-56
2022/09/15 01:17:53;;;;;;;0.68;0.68;;;;;;;21.84;68.53;99365.34;18429852;32;20170;-56
2022/09/15 01:28:13;;;;;;;0.10;0.10;;;;;;;21.95;68.42;99376.13;18436157;32;20373;-56
2022/09/15 01:38:23;;;;;;;0.20;0.20;;;;;;;22.06;68.40;99385.19;18435747;32;20128;-56
2022/09/15 01:48:28;;;;;;;0.43;0.43;;;;;;;21.34;71.46;99393.25;18435411;32;20421;-56
2022/09/15 01:58:33;;;;;;;0.40;0.40;;;;;;;21.75;69.40;99398.66;18435076;32;20560;-56
2022/09/15 02:08:41;;;;;;;0.35;0.35;;;;;;;21.51;69.79;99377.19;18434561;32;20129;-56
2022/09/15 02:18:51;;;;;;;0.30;0.25;;;;;;;21.62;69.14;99378.19;18434198;32;20172;-56
2022/09/15 02:28:55;;;;;;;0.45;0.45;;;;;;;21.50;69.51;99363.06;18434089;32;20361;-56
2022/09/15 02:39:05;;;;;;;0.82;0.40;;;;;;;21.50;69.07;99371.03;18433787;32;20102;-56
2022/09/15 02:49:08;;;;;;;0.20;0.10;;;;;;;21.44;69.08;99374.06;18433475;32;20097;-56
2022/09/15 02:59:14;;;;;;;0.10;0.10;;;;;;;21.10;69.92;99366.47;18427046;32;20093;-56
2022/09/15 03:09:17;;;;;;;0.20;0.20;;;;;;;21.22;69.74;99367.50;18433233;32;20097;-56
2022/09/15 03:19:22;;;;;;;0.32;0.25;;;;;;;21.29;70.36;99357.34;18432718;32;20097;-56
2022/09/15 03:29:26;;;;;;;0.20;0.20;;;;;;;21.34;71.02;99358.75;18432541;32;20093;-56
2022/09/15 03:39:31;;;;;;;0.10;0.10;;;;;;;21.75;70.61;99367.66;18431643;32;20096;-56
2022/09/15 03:49:35;;;;;;;0.20;0.20;;;;;;;21.47;71.89;99369.44;18431599;32;20134;-56
2022/09/15 03:59:40;;;;;;;0.20;0.10;;;;;;;21.85;69.95;99362.59;18431423;32;20092;-56
2022/09/15 04:09:43;;;;;;;0.20;0.20;;;;;;;22.00;69.04;99365.19;18417667;32;20112;-56
2022/09/15 04:19:48;;;;;;;0.10;0.10;;;;;;;22.02;68.75;99364.12;18430568;32;20093;-56
2022/09/15 04:29:52;;;;;;;0.30;0.30;;;;;;;22.24;67.54;99383.09;18431299;32;20115;-56
2022/09/15 04:39:56;;;;;;;0.20;0.20;;;;;;;22.14;67.60;99373.06;18429434;32;20100;-57
2022/09/15 04:50:01;;;;;;;0.17;0.17;;;;;;;22.39;65.63;99390.03;18461028;32;20114;-56
2022/09/15 05:00:07;;;;;;;0.10;0.10;;;;;;;22.34;65.38;99388.66;18501458;32;20144;-56
2022/09/15 05:10:11;;;;;;;0.00;0.00;;;;;;;22.49;64.48;99410.69;18501207;32;20142;-56
2022/09/15 05:20:17;;;;;;;0.03;0.03;;;;;;;22.75;63.57;99400.94;18500740;32;20119;-56
2022/09/15 05:30:20;;;;;;;0.10;0.10;;;;;;;22.59;64.04;99411.78;18500756;32;20092;-56
2022/09/15 05:40:43;;;;;;;0.50;0.40;;;;;;;22.72;64.08;99412.66;18479755;32;20123;-56
2022/09/15 05:50:49;;;;;;;0.03;0.03;;;;;;;22.70;63.78;99435.00;18488560;31;20109;-56
2022/09/15 06:00:54;;;;;;;0.30;0.30;;;;;;;22.65;64.08;99461.91;18433907;32;20108;-57
2022/09/15 06:11:01;;;;;;;0.10;0.10;;;;;;;22.85;63.47;99455.19;18434817;32;20352;-56
2022/09/15 06:21:08;;;;;;;0.00;0.00;;;;;;;23.18;63.19;99452.13;18443537;32;20164;-56
2022/09/15 06:31:13;;;;;;;0.30;0.30;;;;;;;23.52;62.24;99447.09;18463682;32;20133;-57
2022/09/15 06:41:18;;;;;;;0.62;0.30;;;;;;;23.93;60.58;99469.88;18498059;32;20104;-56
2022/09/15 06:51:23;;;;;;;0.10;0.10;;;;;;;24.21;59.65;99478.56;18497330;32;20100;-56
2022/09/15 07:01:28;;;;;;;0.30;0.30;;;;;;;24.43;59.06;99473.44;18495010;32;20154;-56
2022/09/15 07:11:32;;;;;;;0.10;0.10;;;;;;;24.38;59.65;99493.28;18499145;32;20123;-55
2022/09/15 07:21:37;;;;;;;0.45;0.08;;;;;;;24.57;58.52;99496.41;18493509;32;20679;-56
2022/09/15 07:31:41;;;;;;;0.10;0.10;;;;;;;24.83;58.11;99517.59;18474726;32;20128;-55
2022/09/15 07:41:46;;;;;;;0.57;0.30;;;;;;;25.92;55.09;99517.19;18477605;32;20103;-56
2022/09/15 07:51:49;;;;;;;0.00;0.00;;;;;;;27.04;53.02;99490.13;18495310;32;20116;-56
2022/09/15 08:01:54;;;;;;;0.20;0.20;;;;;;;27.59;50.66;99512.25;18492293;32;20089;-55
2022/09/15 08:11:57;;;;;;;0.00;0.00;;;;;;;27.27;48.68;99516.75;18493408;32;20104;-55
2022/09/15 08:22:02;;;;;;;0.05;0.05;;;;;;;27.66;49.29;99518.78;18495991;32;20101;-56
2022/09/15 08:32:06;;;;;;;0.03;0.03;;;;;;;27.54;47.99;99508.16;18494665;32;20118;-56
2022/09/15 08:42:14;;;;;;;0.00;0.00;;;;;;;27.93;47.30;99507.41;18493765;32;20137;-55
2022/09/15 08:52:22;;;;;;;0.10;0.10;;;;;;;28.09;46.71;99488.13;18463474;32;20504;-56
2022/09/15 09:02:50;;;;;;;0.00;0.00;;;;;;;28.80;43.93;99466.50;18402252;32;20466;-57
2022/09/15 09:13:05;;;;;;;1.00;0.22;;;;;;;28.96;43.66;99470.47;18436727;32;20089;-56
2022/09/15 09:23:14;;;;;;;0.10;0.10;;;;;;;29.16;41.08;99442.53;18426218;32;20097;-56
2022/09/15 09:33:28;;;;;;;0.00;0.00;;;;;;;29.34;41.07;99433.69;18426620;32;20109;-56
2022/09/15 09:43:33;;;;;;;0.10;0.10;;;;;;;29.18;39.18;99424.41;18433382;32;20097;-56
2022/09/15 09:53:36;;;;;;;0.00;0.00;;;;;;;28.81;39.38;99427.91;18481234;32;20384;-57
2022/09/15 10:03:42;;;;;;;0.00;0.00;;;;;;;28.77;39.72;99413.91;18499153;32;20166;-57
2022/09/15 10:13:52;;;;;;;0.00;0.00;;;;;;;28.60;39.29;99406.63;18499173;32;20134;-57
2022/09/15 10:23:58;;;;;;;0.00;0.00;;;;;;;28.66;40.35;99379.19;18498749;32;20130;-57
2022/09/15 10:34:25;;;;;;;0.00;0.00;;;;;;;29.40;40.04;99354.28;18498767;32;20088;-57
2022/09/15 10:44:36;;;;;;;0.98;0.30;;;;;;;29.83;37.47;99335.75;18419481;32;20119;-57
2022/09/15 10:54:54;;;;;;;0.00;0.00;;;;;;;29.94;37.55;99348.97;18453874;32;20124;-57
2022/09/15 11:05:19;;;;;;;0.00;0.00;;;;;;;29.45;38.47;99358.25;18439734;32;20509;-57
2022/09/15 11:15:37;;;;;;;0.00;0.00;;;;;;;29.41;38.26;99355.97;18494483;32;20092;-58
2022/09/15 11:25:44;;;;;;;0.70;0.20;;;;;;;29.46;38.73;99346.50;18495043;32;20436;-57
2022/09/15 11:35:52;;;;;;;0.00;0.00;;;;;;;29.27;39.29;99341.22;18496179;32;20140;-57
2022/09/15 11:45:59;;;;;;;0.00;0.00;;;;;;;29.06;39.82;99345.84;18496335;32;20428;-57
2022/09/15 11:56:09;;;;;;;0.00;0.00;;;;;;;28.76;40.85;99333.53;18468319;32;20474;-57
2022/09/15 12:06:16;;;;;;;0.87;0.40;;;;;;;28.78;42.14;99291.25;18486595;32;20158;-57
2022/09/15 12:16:20;;;;;;;1.08;0.30;;;;;;;28.56;42.21;99285.28;18489317;32;20096;-57
2022/09/15 12:26:26;;;;;;;0.00;0.00;;;;;;;28.78;43.09;99294.78;18493887;32;20385;-57
2022/09/15 12:36:35;;;;;;;0.00;0.00;;;;;;;28.70;44.64;99292.03;18494370;32;20099;-57
2022/09/15 12:46:41;;;;;;;0.00;0.00;;;;;;;28.19;46.32;99313.78;18491018;32;20111;-57
2022/09/15 12:56:51;;;;;;;0.00;0.00;;;;;;;27.92;50.86;99335.94;18417832;32;20122;-57
2022/09/15 13:07:27;;;;;;;0.10;0.10;;;;;;;26.54;56.56;99333.75;18411645;32;20463;-57
2022/09/15 13:17:33;;;;;;;0.08;0.08;;;;;;;25.77;57.59;99306.31;18431514;32;20093;-57
2022/09/15 13:27:38;;;;;;;0.10;0.10;;;;;;;25.25;57.92;99333.66;18440036;32;20101;-57
2022/09/15 13:38:03;;;;;;;0.35;0.20;;;;;;;25.10;58.59;99276.16;18450757;32;20107;-57
2022/09/15 13:48:48;;;;;;;0.10;0.10;;;;;;;24.97;59.73;99285.16;18497638;32;20211;-58
2022/09/15 13:58:53;;;;;;;0.75;0.28;;;;;;;24.93;59.71;99275.69;18503293;32;20171;-58
2022/09/15 14:09:06;;;;;;;0.10;0.10;;;;;;;24.75;60.56;99294.84;18518193;32;20100;-58
2022/09/15 14:19:30;;;;;;;0.08;0.08;;;;;;;23.32;66.60;99321.56;18522393;32;20119;-58
2022/09/15 14:29:33;;;;;;;0.10;0.10;;;;;;;23.94;64.78;99317.00;18481721;32;20129;-58
2022/09/15 14:39:39;;;;;;;0.10;0.10;;;;;;;24.17;64.64;99303.75;18493600;32;20096;-58
2022/09/15 14:49:42;;;;;;;0.10;0.10;;;;;;;23.97;65.78;99305.28;18479397;32;20222;-58
2022/09/15 14:59:49;;;;;;;0.10;0.10;;;;;;;23.82;66.81;99293.97;18491585;32;20176;-58
2022/09/15 15:09:56;;;;;;;0.15;0.15;;;;;;;23.83;67.49;99331.13;18495436;32;20743;-58
2022/09/15 15:20:14;;;;;;;0.00;0.00;;;;;;;23.51;68.39;99337.06;18478732;32;20115;-57
2022/09/15 15:30:33;;;;;;;0.03;0.03;;;;;;;23.22;68.53;99304.53;18493587;32;20098;-58
2022/09/15 15:40:39;;;;;;;0.03;0.03;;;;;;;22.78;70.55;99262.41;18519449;32;20084;-58
2022/09/15 15:50:42;;;;;;;0.10;0.10;;;;;;;22.75;70.69;99291.87;18511181;32;20097;-57
2022/09/15 16:00:49;;;;;;;0.40;0.40;;;;;;;22.69;70.55;99268.38;18492965;32;20103;-58
2022/09/15 16:10:53;;;;;;;0.20;0.20;;;;;;;22.78;70.81;99286.34;18502822;32;20092;-58
2022/09/15 16:20:58;;;;;;;0.00;0.00;;;;;;;22.59;71.81;99249.56;18492140;32;20153;-58
2022/09/15 16:31:01;;;;;;;0.10;0.10;;;;;;;22.50;71.94;99277.66;18496860;32;20111;-58
2022/09/15 16:41:10;;;;;;;0.10;0.10;;;;;;;22.59;71.44;99285.00;18517150;32;20395;-58
2022/09/15 16:51:16;;;;;;;0.17;0.17;;;;;;;22.76;70.65;99282.94;18545598;32;20114;-57
2022/09/15 17:01:32;;;;;;;1.00;0.43;;;;;;;22.54;71.32;99273.81;18562031;32;20131;-58
2022/09/15 17:11:35;;;;;;;0.43;0.30;;;;;;;22.45;70.50;99295.69;18561722;32;20212;-57
2022/09/15 17:21:39;;;;;;;0.20;0.20;;;;;;;22.27;70.59;99289.88;18551086;32;20129;-57
2022/09/15 17:31:42;;;;;;;0.20;0.20;;;;;;;22.15;70.45;99289.75;18538984;32;20145;-57
2022/09/15 17:41:47;;;;;;;0.10;0.10;;;;;;;22.18;69.96;99270.06;18497855;32;20101;-58
2022/09/15 17:51:50;;;;;;;0.30;0.30;;;;;;;21.90;70.46;99272.81;18496554;32;20164;-58
2022/09/15 18:01:54;;;;;;;0.03;0.03;;;;;;;21.67;71.29;99279.69;18495963;32;20103;-58
2022/09/15 18:11:58;;;;;;;0.10;0.10;;;;;;;21.69;70.98;99275.09;18451345;32;20113;-58
2022/09/15 18:22:03;;;;;;;3.42;0.77;;;;;;;21.55;71.13;99275.16;18497841;32;20097;-58
2022/09/15 18:32:06;;;;;;;0.10;0.10;;;;;;;21.42;71.10;99270.63;18486167;32;20084;-58
2022/09/15 18:42:11;;;;;;;0.17;0.17;;;;;;;21.05;72.27;99273.03;18479801;32;20097;-57
2022/09/15 18:52:14;;;;;;;1.23;0.50;;;;;;;21.27;71.07;99287.59;18478247;32;20435;-58
2022/09/15 19:02:18;;;;;;;0.10;0.10;;;;;;;21.07;70.85;99276.44;18492815;32;20093;-58
2022/09/15 19:12:22;;;;;;;0.10;0.10;;;;;;;21.04;70.55;99296.06;18492678;32;20121;-57
2022/09/15 19:22:26;;;;;;;0.13;0.13;;;;;;;21.02;70.55;99310.38;18493548;32;20168;-57
2022/09/15 19:32:29;;;;;;;0.13;0.13;;;;;;;20.88;71.20;99335.09;18493518;32;20124;-58
2022/09/15 19:42:34;;;;;;;0.10;0.10;;;;;;;20.82;71.75;99354.00;18499347;32;20123;-58
2022/09/15 19:52:37;;;;;;;0.10;0.10;;;;;;;20.87;71.64;99338.72;18496924;32;20112;-57
2022/09/15 20:02:42;;;;;;;2.47;1.23;;;;;;;20.81;71.84;99337.25;18499864;32;20096;-58
2022/09/15 20:12:45;;;;;;;0.10;0.10;;;;;;;20.86;71.56;99352.94;18502680;32;20096;-57
2022/09/15 20:22:50;;;;;;;0.10;0.10;;;;;;;20.85;71.40;99349.41;18488432;32;20400;-58
2022/09/15 20:32:53;;;;;;;0.10;0.10;;;;;;;20.75;71.94;99345.59;18512597;32;20096;-58
2022/09/15 20:42:57;;;;;;;0.20;0.20;;;;;;;20.92;71.84;99364.00;18506411;32;20445;-57
2022/09/15 20:53:00;;;;;;;0.75;0.57;;;;;;;20.98;71.57;99362.75;18515210;32;20144;-58
2022/09/15 21:03:05;;;;;;;0.43;0.43;;;;;;;20.72;72.59;99377.59;18489985;32;20107;-58
2022/09/15 21:13:08;;;;;;;0.10;0.10;;;;;;;20.85;72.22;99373.28;18535887;32;20968;-58
2022/09/15 21:23:13;;;;;;;0.10;0.10;;;;;;;20.87;72.42;99397.94;18482521;32;20115;-58
2022/09/15 21:33:16;;;;;;;0.10;0.10;;;;;;;20.72;72.50;99404.97;18471317;32;20158;-58
2022/09/15 21:43:20;;;;;;;1.48;0.50;;;;;;;20.57;73.36;99416.50;18496858;32;20093;-57
2022/09/15 21:53:24;;;;;;;0.10;0.10;;;;;;;20.89;71.70;99406.63;18498028;32;20123;-57
2022/09/15 22:03:28;;;;;;;0.28;0.28;;;;;;;20.80;71.49;99433.69;18496027;32;20106;-57
2022/09/15 22:13:32;;;;;;;0.73;0.35;;;;;;;20.82;70.87;99462.75;18499839;32;20097;-57
2022/09/15 22:23:36;;;;;;;1.70;0.32;;;;;;;20.36;72.46;99501.66;18499283;32;20092;-57
2022/09/15 22:33:41;;;;;;;0.20;0.15;;;;;;;20.63;71.03;99508.91;18493364;32;20436;-58
2022/09/15 22:43:46;;;;;;;0.28;0.28;;;;;;;20.50;70.78;99512.28;18449173;32;20347;-57
2022/09/15 22:53:52;;;;;;;0.20;0.20;;;;;;;20.50;70.99;99517.59;18433269;32;20167;-57
2022/09/15 23:03:59;;;;;;;0.20;0.20;;;;;;;20.34;71.22;99532.66;18433983;32;20113;-57
2022/09/15 23:14:02;;;;;;;0.37;0.28;;;;;;;20.25;71.83;99549.94;18433293;32;20116;-57
2022/09/15 23:24:07;;;;;;;0.20;0.20;;;;;;;20.19;72.16;99553.81;18433239;32;20093;-57
2022/09/15 23:34:10;;;;;;;0.20;0.20;;;;;;;20.18;72.16;99561.81;18433816;32;20097;-57
2022/09/15 23:44:15;;;;;;;0.52;0.52;;;;;;;20.22;72.06;99566.03;18427229;32;156389;-57
2022/09/15 23:54:18;;;;;;;0.10;0.10;;;;;;;20.21;71.05;99586.38;18431999;32;20097;-57
